sensor_id;sensor_type;location;lat;lon;timestamp;P1;durP1;ratioP1;P2;durP2;ratioP2
15697;SDS011;7949;48.726;9.102;2022-12-07T00:02:16;18.00;;;9.37;;
15697;SDS011;7949;48.726;9.102;2022-12-07T00:04:46;16.43;;;9.93;;
15697;SDS011;7949;48.726;9.102;2022-12-07T00:07:15;18.23;;;9.53;;
15697;SDS011;7949;48.726;9.102;2022-12-07T00:09:42;16.07;;;9.17;;
15697;SDS011;7949;48.726;9.102;2022-12-07T00:12:08;16.60;;;9.80;;
15697;SDS011;7949;48.726;9.102;2022-12-07T00:14:35;16.27;;;9.30;;
15697;SDS011;7949;48.726;9.102;2022-12-07T00:17:04;19.33;;;8.93;;
15697;SDS011;7949;48.726;9.102;2022-12-07T00:19:31;18.13;;;9.40;;
15697;SDS011;7949;48.726;9.102;2022-12-07T00:21:57;16.90;;;8.73;;
15697;SDS011;7949;48.726;9.102;2022-12-07T00:24:25;16.70;;;9.57;;
15697;SDS011;7949;48.726;9.102;2022-12-07T00:26:52;15.47;;;8.83;;
15697;SDS011;7949;48.726;9.102;2022-12-07T00:29:20;16.77;;;9.07;;
15697;SDS011;7949;48.726;9.102;2022-12-07T00:31:48;14.63;;;8.37;;
15697;SDS011;7949;48.726;9.102;2022-12-07T00:34:17;14.60;;;8.47;;
15697;SDS011;7949;48.726;9.102;2022-12-07T00:36:45;14.27;;;8.83;;
15697;SDS011;7949;48.726;9.102;2022-12-07T00:39:12;14.33;;;8.43;;
15697;SDS011;7949;48.726;9.102;2022-12-07T00:41:39;15.13;;;8.67;;
15697;SDS011;7949;48.726;9.102;2022-12-07T00:44:09;14.20;;;9.03;;
15697;SDS011;7949;48.726;9.102;2022-12-07T00:46:38;15.53;;;9.13;;
15697;SDS011;7949;48.726;9.102;2022-12-07T00:49:10;14.30;;;9.30;;
15697;SDS011;7949;48.726;9.102;2022-12-07T00:51:38;16.43;;;8.47;;
15697;SDS011;7949;48.726;9.102;2022-12-07T00:54:05;18.17;;;9.13;;
15697;SDS011;7949;48.726;9.102;2022-12-07T00:56:32;16.10;;;9.57;;
15697;SDS011;7949;48.726;9.102;2022-12-07T00:59:00;13.80;;;8.93;;
15697;SDS011;7949;48.726;9.102;2022-12-07T01:01:31;17.63;;;10.20;;
15697;SDS011;7949;48.726;9.102;2022-12-07T01:03:59;16.03;;;9.40;;
15697;SDS011;7949;48.726;9.102;2022-12-07T01:06:27;15.33;;;8.20;;
15697;SDS011;7949;48.726;9.102;2022-12-07T01:08:56;14.37;;;8.23;;
15697;SDS011;7949;48.726;9.102;2022-12-07T01:11:29;13.90;;;8.13;;
15697;SDS011;7949;48.726;9.102;2022-12-07T01:13:57;14.27;;;8.70;;
15697;SDS011;7949;48.726;9.102;2022-12-07T01:16:26;14.60;;;9.07;;
15697;SDS011;7949;48.726;9.102;2022-12-07T01:18:54;15.60;;;9.13;;
15697;SDS011;7949;48.726;9.102;2022-12-07T01:21:22;14.83;;;9.00;;
15697;SDS011;7949;48.726;9.102;2022-12-07T01:23:51;13.90;;;8.93;;
15697;SDS011;7949;48.726;9.102;2022-12-07T01:26:22;17.23;;;9.10;;
15697;SDS011;7949;48.726;9.102;2022-12-07T01:28:50;15.00;;;8.40;;
15697;SDS011;7949;48.726;9.102;2022-12-07T01:31:20;17.57;;;9.40;;
15697;SDS011;7949;48.726;9.102;2022-12-07T01:33:50;13.03;;;8.10;;
15697;SDS011;7949;48.726;9.102;2022-12-07T01:36:19;14.50;;;8.37;;
15697;SDS011;7949;48.726;9.102;2022-12-07T01:38:49;16.40;;;10.00;;
15697;SDS011;7949;48.726;9.102;2022-12-07T01:41:18;16.30;;;9.63;;
15697;SDS011;7949;48.726;9.102;2022-12-07T01:46:43;13.53;;;7.53;;
15697;SDS011;7949;48.726;9.102;2022-12-07T01:49:13;19.07;;;10.60;;
15697;SDS011;7949;48.726;9.102;2022-12-07T01:51:55;20.03;;;10.73;;
15697;SDS011;7949;48.726;9.102;2022-12-07T01:54:28;16.90;;;10.23;;
15697;SDS011;7949;48.726;9.102;2022-12-07T01:56:55;16.40;;;9.03;;
15697;SDS011;7949;48.726;9.102;2022-12-07T01:59:31;17.37;;;10.40;;
15697;SDS011;7949;48.726;9.102;2022-12-07T02:01:58;17.97;;;10.80;;
15697;SDS011;7949;48.726;9.102;2022-12-07T02:04:28;18.27;;;10.43;;
15697;SDS011;7949;48.726;9.102;2022-12-07T02:06:55;19.50;;;10.27;;
15697;SDS011;7949;48.726;9.102;2022-12-07T02:09:25;21.17;;;11.20;;
15697;SDS011;7949;48.726;9.102;2022-12-07T02:11:52;16.13;;;9.37;;
15697;SDS011;7949;48.726;9.102;2022-12-07T02:14:20;17.23;;;9.80;;
15697;SDS011;7949;48.726;9.102;2022-12-07T02:16:51;18.37;;;11.23;;
15697;SDS011;7949;48.726;9.102;2022-12-07T02:19:33;17.17;;;9.00;;
15697;SDS011;7949;48.726;9.102;2022-12-07T02:25:27;19.93;;;9.47;;
15697;SDS011;7949;48.726;9.102;2022-12-07T02:28:03;19.40;;;10.30;;
15697;SDS011;7949;48.726;9.102;2022-12-07T02:30:34;18.83;;;10.67;;
15697;SDS011;7949;48.726;9.102;2022-12-07T02:33:06;18.27;;;10.97;;
15697;SDS011;7949;48.726;9.102;2022-12-07T02:35:39;17.43;;;10.47;;
15697;SDS011;7949;48.726;9.102;2022-12-07T02:38:11;20.90;;;10.00;;
15697;SDS011;7949;48.726;9.102;2022-12-07T02:40:43;18.60;;;10.07;;
15697;SDS011;7949;48.726;9.102;2022-12-07T02:43:14;20.27;;;10.63;;
15697;SDS011;7949;48.726;9.102;2022-12-07T02:45:45;16.53;;;9.50;;
15697;SDS011;7949;48.726;9.102;2022-12-07T02:48:14;19.07;;;10.10;;
15697;SDS011;7949;48.726;9.102;2022-12-07T02:50:45;17.70;;;10.00;;
15697;SDS011;7949;48.726;9.102;2022-12-07T02:53:33;15.70;;;9.17;;
15697;SDS011;7949;48.726;9.102;2022-12-07T02:56:03;19.20;;;11.17;;
15697;SDS011;7949;48.726;9.102;2022-12-07T02:58:37;17.17;;;9.87;;
15697;SDS011;7949;48.726;9.102;2022-12-07T03:01:16;16.63;;;9.77;;
15697;SDS011;7949;48.726;9.102;2022-12-07T03:03:58;18.37;;;9.20;;
15697;SDS011;7949;48.726;9.102;2022-12-07T03:06:35;14.67;;;9.30;;
15697;SDS011;7949;48.726;9.102;2022-12-07T03:09:09;15.17;;;9.07;;
15697;SDS011;7949;48.726;9.102;2022-12-07T03:11:45;16.40;;;9.53;;
15697;SDS011;7949;48.726;9.102;2022-12-07T03:14:19;19.27;;;10.20;;
15697;SDS011;7949;48.726;9.102;2022-12-07T03:16:53;19.30;;;10.37;;
15697;SDS011;7949;48.726;9.102;2022-12-07T03:19:27;17.33;;;10.37;;
15697;SDS011;7949;48.726;9.102;2022-12-07T03:21:59;18.17;;;10.50;;
15697;SDS011;7949;48.726;9.102;2022-12-07T03:24:30;16.80;;;9.60;;
15697;SDS011;7949;48.726;9.102;2022-12-07T03:27:08;18.40;;;10.20;;
15697;SDS011;7949;48.726;9.102;2022-12-07T03:29:42;18.17;;;10.93;;
15697;SDS011;7949;48.726;9.102;2022-12-07T03:32:14;18.33;;;10.60;;
15697;SDS011;7949;48.726;9.102;2022-12-07T03:34:46;17.97;;;11.13;;
15697;SDS011;7949;48.726;9.102;2022-12-07T03:37:18;15.83;;;9.57;;
15697;SDS011;7949;48.726;9.102;2022-12-07T03:39:55;16.30;;;10.00;;
15697;SDS011;7949;48.726;9.102;2022-12-07T03:42:27;15.47;;;9.30;;
15697;SDS011;7949;48.726;9.102;2022-12-07T03:45:04;17.27;;;9.70;;
15697;SDS011;7949;48.726;9.102;2022-12-07T03:47:37;16.23;;;9.00;;
15697;SDS011;7949;48.726;9.102;2022-12-07T03:50:13;30.30;;;10.43;;
15697;SDS011;7949;48.726;9.102;2022-12-07T03:52:47;15.60;;;8.90;;
15697;SDS011;7949;48.726;9.102;2022-12-07T03:55:27;15.87;;;9.10;;
15697;SDS011;7949;48.726;9.102;2022-12-07T03:57:57;14.00;;;8.47;;
15697;SDS011;7949;48.726;9.102;2022-12-07T04:00:26;16.10;;;9.33;;
15697;SDS011;7949;48.726;9.102;2022-12-07T04:02:55;16.17;;;9.43;;
15697;SDS011;7949;48.726;9.102;2022-12-07T04:05:21;15.00;;;9.23;;
15697;SDS011;7949;48.726;9.102;2022-12-07T04:07:49;14.40;;;8.47;;
15697;SDS011;7949;48.726;9.102;2022-12-07T04:10:17;14.87;;;9.07;;
15697;SDS011;7949;48.726;9.102;2022-12-07T04:12:44;16.17;;;9.50;;
15697;SDS011;7949;48.726;9.102;2022-12-07T04:15:13;16.30;;;9.43;;
15697;SDS011;7949;48.726;9.102;2022-12-07T04:17:40;15.90;;;8.93;;
15697;SDS011;7949;48.726;9.102;2022-12-07T04:20:09;15.60;;;8.97;;
15697;SDS011;7949;48.726;9.102;2022-12-07T04:22:37;13.77;;;8.93;;
15697;SDS011;7949;48.726;9.102;2022-12-07T04:25:04;15.63;;;9.50;;
15697;SDS011;7949;48.726;9.102;2022-12-07T04:27:34;16.27;;;9.87;;
15697;SDS011;7949;48.726;9.102;2022-12-07T04:30:01;17.40;;;10.10;;
15697;SDS011;7949;48.726;9.102;2022-12-07T04:32:28;18.40;;;10.00;;
15697;SDS011;7949;48.726;9.102;2022-12-07T04:34:57;17.43;;;10.03;;
15697;SDS011;7949;48.726;9.102;2022-12-07T04:37:25;15.80;;;9.20;;
15697;SDS011;7949;48.726;9.102;2022-12-07T04:39:53;17.17;;;9.30;;
15697;SDS011;7949;48.726;9.102;2022-12-07T04:42:23;16.70;;;9.70;;
15697;SDS011;7949;48.726;9.102;2022-12-07T04:44:50;14.83;;;8.67;;
15697;SDS011;7949;48.726;9.102;2022-12-07T04:47:17;13.37;;;8.00;;
15697;SDS011;7949;48.726;9.102;2022-12-07T04:49:44;12.97;;;7.53;;
15697;SDS011;7949;48.726;9.102;2022-12-07T04:52:15;14.07;;;7.50;;
15697;SDS011;7949;48.726;9.102;2022-12-07T04:54:43;13.97;;;7.30;;
15697;SDS011;7949;48.726;9.102;2022-12-07T04:57:10;14.10;;;6.63;;
15697;SDS011;7949;48.726;9.102;2022-12-07T04:59:37;9.77;;;5.53;;
15697;SDS011;7949;48.726;9.102;2022-12-07T05:02:04;8.87;;;5.43;;
15697;SDS011;7949;48.726;9.102;2022-12-07T05:04:30;10.30;;;5.73;;
15697;SDS011;7949;48.726;9.102;2022-12-07T05:06:57;12.03;;;6.73;;
15697;SDS011;7949;48.726;9.102;2022-12-07T05:09:24;10.33;;;6.30;;
15697;SDS011;7949;48.726;9.102;2022-12-07T05:11:52;10.73;;;5.97;;
15697;SDS011;7949;48.726;9.102;2022-12-07T05:14:20;9.70;;;5.43;;
15697;SDS011;7949;48.726;9.102;2022-12-07T05:16:48;6.63;;;4.53;;
15697;SDS011;7949;48.726;9.102;2022-12-07T05:19:16;9.13;;;5.50;;
15697;SDS011;7949;48.726;9.102;2022-12-07T05:21:43;5.17;;;3.57;;
15697;SDS011;7949;48.726;9.102;2022-12-07T05:24:14;6.07;;;3.83;;
15697;SDS011;7949;48.726;9.102;2022-12-07T05:26:42;6.83;;;4.13;;
15697;SDS011;7949;48.726;9.102;2022-12-07T05:29:12;6.30;;;3.80;;
15697;SDS011;7949;48.726;9.102;2022-12-07T05:31:40;7.40;;;4.37;;
15697;SDS011;7949;48.726;9.102;2022-12-07T05:34:07;8.43;;;4.07;;
15697;SDS011;7949;48.726;9.102;2022-12-07T05:36:34;6.87;;;4.23;;
15697;SDS011;7949;48.726;9.102;2022-12-07T05:39:01;6.87;;;4.10;;
15697;SDS011;7949;48.726;9.102;2022-12-07T05:41:28;6.23;;;3.77;;
15697;SDS011;7949;48.726;9.102;2022-12-07T05:44:14;7.00;;;4.03;;
15697;SDS011;7949;48.726;9.102;2022-12-07T05:46:41;7.30;;;4.93;;
15697;SDS011;7949;48.726;9.102;2022-12-07T05:49:07;7.20;;;4.67;;
15697;SDS011;7949;48.726;9.102;2022-12-07T05:51:36;8.03;;;4.57;;
15697;SDS011;7949;48.726;9.102;2022-12-07T05:54:03;8.83;;;5.23;;
15697;SDS011;7949;48.726;9.102;2022-12-07T05:56:32;9.83;;;5.53;;
15697;SDS011;7949;48.726;9.102;2022-12-07T05:58:59;10.87;;;5.20;;
15697;SDS011;7949;48.726;9.102;2022-12-07T06:01:45;9.70;;;5.57;;
15697;SDS011;7949;48.726;9.102;2022-12-07T06:04:15;9.37;;;5.50;;
15697;SDS011;7949;48.726;9.102;2022-12-07T06:06:41;11.00;;;6.33;;
15697;SDS011;7949;48.726;9.102;2022-12-07T06:09:11;10.73;;;6.43;;
15697;SDS011;7949;48.726;9.102;2022-12-07T06:11:38;10.30;;;4.93;;
15697;SDS011;7949;48.726;9.102;2022-12-07T06:14:23;11.00;;;5.57;;
15697;SDS011;7949;48.726;9.102;2022-12-07T06:16:53;11.17;;;6.03;;
15697;SDS011;7949;48.726;9.102;2022-12-07T06:19:19;10.83;;;6.50;;
15697;SDS011;7949;48.726;9.102;2022-12-07T06:21:46;11.23;;;6.50;;
15697;SDS011;7949;48.726;9.102;2022-12-07T06:24:13;12.50;;;6.83;;
15697;SDS011;7949;48.726;9.102;2022-12-07T06:26:42;11.13;;;6.57;;
15697;SDS011;7949;48.726;9.102;2022-12-07T06:29:09;14.80;;;8.87;;
15697;SDS011;7949;48.726;9.102;2022-12-07T06:31:37;14.83;;;8.47;;
15697;SDS011;7949;48.726;9.102;2022-12-07T06:34:06;13.60;;;7.03;;
15697;SDS011;7949;48.726;9.102;2022-12-07T06:36:36;10.77;;;6.40;;
15697;SDS011;7949;48.726;9.102;2022-12-07T06:39:03;18.77;;;7.93;;
15697;SDS011;7949;48.726;9.102;2022-12-07T06:41:31;12.70;;;7.10;;
15697;SDS011;7949;48.726;9.102;2022-12-07T06:43:58;11.73;;;6.67;;
15697;SDS011;7949;48.726;9.102;2022-12-07T06:46:27;11.20;;;6.70;;
15697;SDS011;7949;48.726;9.102;2022-12-07T06:48:54;11.40;;;6.53;;
15697;SDS011;7949;48.726;9.102;2022-12-07T06:51:24;9.80;;;6.27;;
15697;SDS011;7949;48.726;9.102;2022-12-07T06:53:51;10.87;;;6.57;;
15697;SDS011;7949;48.726;9.102;2022-12-07T06:56:18;12.23;;;7.07;;
15697;SDS011;7949;48.726;9.102;2022-12-07T06:58:45;15.77;;;6.90;;
15697;SDS011;7949;48.726;9.102;2022-12-07T07:01:12;10.63;;;5.90;;
15697;SDS011;7949;48.726;9.102;2022-12-07T07:03:40;13.77;;;5.90;;
15697;SDS011;7949;48.726;9.102;2022-12-07T07:06:10;9.90;;;5.90;;
15697;SDS011;7949;48.726;9.102;2022-12-07T07:08:39;11.47;;;6.80;;
15697;SDS011;7949;48.726;9.102;2022-12-07T07:11:07;9.63;;;5.23;;
15697;SDS011;7949;48.726;9.102;2022-12-07T07:13:34;10.33;;;5.63;;
15697;SDS011;7949;48.726;9.102;2022-12-07T07:16:01;10.30;;;5.80;;
15697;SDS011;7949;48.726;9.102;2022-12-07T07:18:28;10.70;;;5.63;;
15697;SDS011;7949;48.726;9.102;2022-12-07T07:20:55;12.00;;;5.57;;
15697;SDS011;7949;48.726;9.102;2022-12-07T07:23:22;11.10;;;5.83;;
15697;SDS011;7949;48.726;9.102;2022-12-07T07:25:50;9.10;;;5.57;;
15697;SDS011;7949;48.726;9.102;2022-12-07T07:28:17;11.07;;;6.77;;
15697;SDS011;7949;48.726;9.102;2022-12-07T07:30:44;10.90;;;5.90;;
15697;SDS011;7949;48.726;9.102;2022-12-07T07:33:12;10.57;;;6.13;;
15697;SDS011;7949;48.726;9.102;2022-12-07T07:35:39;10.40;;;6.53;;
15697;SDS011;7949;48.726;9.102;2022-12-07T07:38:06;12.47;;;7.33;;
15697;SDS011;7949;48.726;9.102;2022-12-07T07:40:34;15.27;;;6.63;;
15697;SDS011;7949;48.726;9.102;2022-12-07T07:43:02;11.73;;;6.80;;
15697;SDS011;7949;48.726;9.102;2022-12-07T07:45:29;10.90;;;6.57;;
15697;SDS011;7949;48.726;9.102;2022-12-07T07:47:56;11.47;;;6.57;;
15697;SDS011;7949;48.726;9.102;2022-12-07T07:50:23;10.27;;;6.30;;
15697;SDS011;7949;48.726;9.102;2022-12-07T07:52:50;12.23;;;6.80;;
15697;SDS011;7949;48.726;9.102;2022-12-07T07:55:18;13.43;;;7.13;;
15697;SDS011;7949;48.726;9.102;2022-12-07T07:57:45;11.47;;;6.33;;
15697;SDS011;7949;48.726;9.102;2022-12-07T08:00:14;13.33;;;7.50;;
15697;SDS011;7949;48.726;9.102;2022-12-07T08:02:41;12.70;;;6.77;;
15697;SDS011;7949;48.726;9.102;2022-12-07T08:05:09;9.00;;;5.97;;
15697;SDS011;7949;48.726;9.102;2022-12-07T08:07:37;10.60;;;6.03;;
15697;SDS011;7949;48.726;9.102;2022-12-07T08:10:04;10.70;;;6.70;;
15697;SDS011;7949;48.726;9.102;2022-12-07T08:12:35;9.97;;;6.17;;
15697;SDS011;7949;48.726;9.102;2022-12-07T08:15:02;13.13;;;6.83;;
15697;SDS011;7949;48.726;9.102;2022-12-07T08:17:31;13.83;;;7.00;;
15697;SDS011;7949;48.726;9.102;2022-12-07T08:19:59;9.97;;;5.77;;
15697;SDS011;7949;48.726;9.102;2022-12-07T08:22:26;9.77;;;6.20;;
15697;SDS011;7949;48.726;9.102;2022-12-07T08:24:53;12.07;;;6.10;;
15697;SDS011;7949;48.726;9.102;2022-12-07T08:27:20;12.37;;;6.23;;
15697;SDS011;7949;48.726;9.102;2022-12-07T08:29:51;9.03;;;5.67;;
15697;SDS011;7949;48.726;9.102;2022-12-07T08:32:18;10.57;;;6.13;;
15697;SDS011;7949;48.726;9.102;2022-12-07T08:34:46;10.43;;;6.27;;
15697;SDS011;7949;48.726;9.102;2022-12-07T08:37:14;13.07;;;5.83;;
15697;SDS011;7949;48.726;9.102;2022-12-07T08:39:41;11.60;;;5.90;;
15697;SDS011;7949;48.726;9.102;2022-12-07T08:42:07;8.60;;;5.23;;
15697;SDS011;7949;48.726;9.102;2022-12-07T08:44:34;10.30;;;5.60;;
15697;SDS011;7949;48.726;9.102;2022-12-07T08:47:02;8.43;;;5.40;;
15697;SDS011;7949;48.726;9.102;2022-12-07T08:49:31;8.03;;;5.30;;
15697;SDS011;7949;48.726;9.102;2022-12-07T08:52:04;14.03;;;6.50;;
15697;SDS011;7949;48.726;9.102;2022-12-07T08:54:31;14.03;;;6.00;;
15697;SDS011;7949;48.726;9.102;2022-12-07T08:57:01;12.47;;;5.90;;
15697;SDS011;7949;48.726;9.102;2022-12-07T08:59:28;12.10;;;5.87;;
15697;SDS011;7949;48.726;9.102;2022-12-07T09:01:55;10.17;;;5.73;;
15697;SDS011;7949;48.726;9.102;2022-12-07T09:04:22;9.87;;;5.33;;
15697;SDS011;7949;48.726;9.102;2022-12-07T09:06:49;10.27;;;5.53;;
15697;SDS011;7949;48.726;9.102;2022-12-07T09:09:17;9.50;;;5.83;;
15697;SDS011;7949;48.726;9.102;2022-12-07T09:11:44;8.60;;;5.43;;
15697;SDS011;7949;48.726;9.102;2022-12-07T09:14:11;9.07;;;5.33;;
15697;SDS011;7949;48.726;9.102;2022-12-07T09:16:39;8.50;;;4.83;;
15697;SDS011;7949;48.726;9.102;2022-12-07T09:19:06;7.50;;;4.20;;
15697;SDS011;7949;48.726;9.102;2022-12-07T09:21:34;9.07;;;4.83;;
15697;SDS011;7949;48.726;9.102;2022-12-07T09:24:01;8.73;;;4.47;;
15697;SDS011;7949;48.726;9.102;2022-12-07T09:26:29;8.10;;;4.97;;
15697;SDS011;7949;48.726;9.102;2022-12-07T09:28:56;9.03;;;5.23;;
15697;SDS011;7949;48.726;9.102;2022-12-07T09:31:23;9.77;;;4.77;;
15697;SDS011;7949;48.726;9.102;2022-12-07T09:33:52;10.50;;;5.17;;
15697;SDS011;7949;48.726;9.102;2022-12-07T09:36:20;8.67;;;4.87;;
15697;SDS011;7949;48.726;9.102;2022-12-07T09:38:47;7.33;;;5.03;;
15697;SDS011;7949;48.726;9.102;2022-12-07T09:41:14;8.10;;;4.80;;
15697;SDS011;7949;48.726;9.102;2022-12-07T09:43:42;7.20;;;4.37;;
15697;SDS011;7949;48.726;9.102;2022-12-07T09:46:11;8.10;;;4.63;;
15697;SDS011;7949;48.726;9.102;2022-12-07T09:48:41;6.73;;;4.50;;
15697;SDS011;7949;48.726;9.102;2022-12-07T09:51:13;6.67;;;4.40;;
15697;SDS011;7949;48.726;9.102;2022-12-07T09:53:42;8.47;;;4.50;;
15697;SDS011;7949;48.726;9.102;2022-12-07T09:56:11;7.43;;;4.83;;
15697;SDS011;7949;48.726;9.102;2022-12-07T09:58:39;5.67;;;3.70;;
15697;SDS011;7949;48.726;9.102;2022-12-07T10:01:11;5.77;;;3.70;;
15697;SDS011;7949;48.726;9.102;2022-12-07T10:03:42;7.67;;;3.93;;
15697;SDS011;7949;48.726;9.102;2022-12-07T10:06:14;5.73;;;3.43;;
15697;SDS011;7949;48.726;9.102;2022-12-07T10:08:41;7.37;;;4.07;;
15697;SDS011;7949;48.726;9.102;2022-12-07T10:11:08;5.57;;;3.73;;
15697;SDS011;7949;48.726;9.102;2022-12-07T10:13:37;6.00;;;3.57;;
15697;SDS011;7949;48.726;9.102;2022-12-07T10:16:05;6.50;;;3.90;;
15697;SDS011;7949;48.726;9.102;2022-12-07T10:18:35;6.27;;;3.40;;
15697;SDS011;7949;48.726;9.102;2022-12-07T10:21:05;5.60;;;3.57;;
15697;SDS011;7949;48.726;9.102;2022-12-07T10:23:37;9.87;;;3.67;;
15697;SDS011;7949;48.726;9.102;2022-12-07T10:26:26;4.80;;;3.20;;
15697;SDS011;7949;48.726;9.102;2022-12-07T10:28:56;5.70;;;3.27;;
15697;SDS011;7949;48.726;9.102;2022-12-07T10:31:26;7.57;;;3.00;;
15697;SDS011;7949;48.726;9.102;2022-12-07T10:33:56;5.07;;;3.20;;
15697;SDS011;7949;48.726;9.102;2022-12-07T10:36:25;5.60;;;3.73;;
15697;SDS011;7949;48.726;9.102;2022-12-07T10:39:00;4.20;;;3.13;;
15697;SDS011;7949;48.726;9.102;2022-12-07T10:41:29;6.17;;;3.63;;
15697;SDS011;7949;48.726;9.102;2022-12-07T10:43:57;4.90;;;3.13;;
15697;SDS011;7949;48.726;9.102;2022-12-07T10:46:27;4.20;;;2.87;;
15697;SDS011;7949;48.726;9.102;2022-12-07T10:52:29;6.13;;;3.70;;
15697;SDS011;7949;48.726;9.102;2022-12-07T10:55:13;5.93;;;4.00;;
15697;SDS011;7949;48.726;9.102;2022-12-07T10:57:49;11.20;;;3.40;;
15697;SDS011;7949;48.726;9.102;2022-12-07T11:00:28;6.23;;;3.10;;
15697;SDS011;7949;48.726;9.102;2022-12-07T11:06:14;8.13;;;3.03;;
15697;SDS011;7949;48.726;9.102;2022-12-07T11:08:55;6.07;;;3.47;;
15697;SDS011;7949;48.726;9.102;2022-12-07T11:11:31;6.57;;;3.60;;
15697;SDS011;7949;48.726;9.102;2022-12-07T11:14:03;7.90;;;4.20;;
15697;SDS011;7949;48.726;9.102;2022-12-07T11:16:45;6.03;;;3.50;;
15697;SDS011;7949;48.726;9.102;2022-12-07T11:19:22;5.97;;;3.60;;
15697;SDS011;7949;48.726;9.102;2022-12-07T11:22:12;6.03;;;3.20;;
15697;SDS011;7949;48.726;9.102;2022-12-07T11:24:44;6.27;;;3.73;;
15697;SDS011;7949;48.726;9.102;2022-12-07T11:27:20;7.27;;;3.50;;
15697;SDS011;7949;48.726;9.102;2022-12-07T11:29:59;5.43;;;3.57;;
15697;SDS011;7949;48.726;9.102;2022-12-07T11:32:44;4.50;;;3.30;;
15697;SDS011;7949;48.726;9.102;2022-12-07T11:35:24;6.13;;;3.27;;
15697;SDS011;7949;48.726;9.102;2022-12-07T11:38:01;4.97;;;3.10;;
15697;SDS011;7949;48.726;9.102;2022-12-07T11:40:38;4.93;;;2.83;;
15697;SDS011;7949;48.726;9.102;2022-12-07T11:43:13;6.67;;;3.40;;
15697;SDS011;7949;48.726;9.102;2022-12-07T11:45:46;6.43;;;3.43;;
15697;SDS011;7949;48.726;9.102;2022-12-07T11:48:22;5.30;;;2.83;;
15697;SDS011;7949;48.726;9.102;2022-12-07T11:50:56;4.77;;;2.80;;
15697;SDS011;7949;48.726;9.102;2022-12-07T11:53:25;7.37;;;3.33;;
15697;SDS011;7949;48.726;9.102;2022-12-07T11:55:57;5.03;;;2.93;;
15697;SDS011;7949;48.726;9.102;2022-12-07T11:58:38;4.63;;;2.57;;
15697;SDS011;7949;48.726;9.102;2022-12-07T12:01:18;5.73;;;3.10;;
15697;SDS011;7949;48.726;9.102;2022-12-07T12:04:03;5.73;;;2.60;;
15697;SDS011;7949;48.726;9.102;2022-12-07T12:06:40;4.20;;;2.53;;
15697;SDS011;7949;48.726;9.102;2022-12-07T12:09:11;3.57;;;2.40;;
15697;SDS011;7949;48.726;9.102;2022-12-07T12:11:47;4.20;;;2.17;;
15697;SDS011;7949;48.726;9.102;2022-12-07T12:14:38;3.63;;;2.27;;
15697;SDS011;7949;48.726;9.102;2022-12-07T12:17:22;4.50;;;2.17;;
15697;SDS011;7949;48.726;9.102;2022-12-07T12:20:19;4.93;;;2.10;;
15697;SDS011;7949;48.726;9.102;2022-12-07T12:22:50;7.97;;;2.80;;
15697;SDS011;7949;48.726;9.102;2022-12-07T12:25:22;3.47;;;2.33;;
15697;SDS011;7949;48.726;9.102;2022-12-07T12:27:54;28.17;;;5.20;;
15697;SDS011;7949;48.726;9.102;2022-12-07T12:30:25;12.77;;;2.57;;
15697;SDS011;7949;48.726;9.102;2022-12-07T12:33:01;3.60;;;2.03;;
15697;SDS011;7949;48.726;9.102;2022-12-07T12:35:33;2.17;;;1.60;;
15697;SDS011;7949;48.726;9.102;2022-12-07T12:38:23;2.10;;;1.47;;
15697;SDS011;7949;48.726;9.102;2022-12-07T12:40:58;2.83;;;1.70;;
15697;SDS011;7949;48.726;9.102;2022-12-07T12:55:20;9.53;;;2.47;;
15697;SDS011;7949;48.726;9.102;2022-12-07T13:04:13;4.07;;;2.50;;
15697;SDS011;7949;48.726;9.102;2022-12-07T13:06:54;4.97;;;3.27;;
15697;SDS011;7949;48.726;9.102;2022-12-07T13:09:22;5.43;;;3.77;;
15697;SDS011;7949;48.726;9.102;2022-12-07T13:11:55;5.80;;;3.10;;
15697;SDS011;7949;48.726;9.102;2022-12-07T13:14:37;11.57;;;3.20;;
15697;SDS011;7949;48.726;9.102;2022-12-07T13:20:40;7.50;;;3.37;;
15697;SDS011;7949;48.726;9.102;2022-12-07T13:23:12;10.97;;;3.50;;
15697;SDS011;7949;48.726;9.102;2022-12-07T13:25:44;4.57;;;3.03;;
15697;SDS011;7949;48.726;9.102;2022-12-07T13:28:18;8.17;;;3.53;;
15697;SDS011;7949;48.726;9.102;2022-12-07T13:30:52;7.67;;;3.50;;
15697;SDS011;7949;48.726;9.102;2022-12-07T13:33:28;8.93;;;3.27;;
15697;SDS011;7949;48.726;9.102;2022-12-07T13:35:56;3.93;;;2.57;;
15697;SDS011;7949;48.726;9.102;2022-12-07T13:38:27;3.57;;;2.40;;
15697;SDS011;7949;48.726;9.102;2022-12-07T13:40:59;6.53;;;2.47;;
15697;SDS011;7949;48.726;9.102;2022-12-07T13:43:30;7.57;;;2.40;;
15697;SDS011;7949;48.726;9.102;2022-12-07T13:45:57;3.67;;;2.50;;
15697;SDS011;7949;48.726;9.102;2022-12-07T13:48:30;4.13;;;2.30;;
15697;SDS011;7949;48.726;9.102;2022-12-07T13:50:58;6.97;;;2.63;;
15697;SDS011;7949;48.726;9.102;2022-12-07T13:53:27;6.50;;;2.73;;
15697;SDS011;7949;48.726;9.102;2022-12-07T13:55:55;5.23;;;2.47;;
15697;SDS011;7949;48.726;9.102;2022-12-07T13:58:23;7.83;;;4.20;;
15697;SDS011;7949;48.726;9.102;2022-12-07T14:00:50;5.93;;;3.50;;
15697;SDS011;7949;48.726;9.102;2022-12-07T14:03:30;4.20;;;2.67;;
15697;SDS011;7949;48.726;9.102;2022-12-07T14:06:06;4.57;;;2.83;;
15697;SDS011;7949;48.726;9.102;2022-12-07T14:08:40;3.03;;;1.87;;
15697;SDS011;7949;48.726;9.102;2022-12-07T14:11:09;3.93;;;2.53;;
15697;SDS011;7949;48.726;9.102;2022-12-07T14:13:44;5.57;;;2.80;;
15697;SDS011;7949;48.726;9.102;2022-12-07T14:16:24;4.63;;;2.70;;
15697;SDS011;7949;48.726;9.102;2022-12-07T14:18:56;4.57;;;2.03;;
15697;SDS011;7949;48.726;9.102;2022-12-07T14:21:24;4.67;;;2.80;;
15697;SDS011;7949;48.726;9.102;2022-12-07T14:24:08;4.30;;;2.67;;
15697;SDS011;7949;48.726;9.102;2022-12-07T14:26:37;3.63;;;2.60;;
15697;SDS011;7949;48.726;9.102;2022-12-07T14:29:22;4.47;;;2.80;;
15697;SDS011;7949;48.726;9.102;2022-12-07T14:31:57;3.47;;;2.50;;
15697;SDS011;7949;48.726;9.102;2022-12-07T14:34:53;6.13;;;3.33;;
15697;SDS011;7949;48.726;9.102;2022-12-07T14:37:25;7.50;;;3.87;;
15697;SDS011;7949;48.726;9.102;2022-12-07T14:39:53;5.23;;;3.07;;
15697;SDS011;7949;48.726;9.102;2022-12-07T14:42:20;9.43;;;3.40;;
15697;SDS011;7949;48.726;9.102;2022-12-07T14:44:48;7.13;;;3.20;;
15697;SDS011;7949;48.726;9.102;2022-12-07T14:47:14;4.87;;;3.10;;
15697;SDS011;7949;48.726;9.102;2022-12-07T14:49:41;5.83;;;3.40;;
15697;SDS011;7949;48.726;9.102;2022-12-07T14:52:11;6.00;;;3.57;;
15697;SDS011;7949;48.726;9.102;2022-12-07T14:54:41;5.60;;;3.37;;
15697;SDS011;7949;48.726;9.102;2022-12-07T14:57:09;5.97;;;3.30;;
15697;SDS011;7949;48.726;9.102;2022-12-07T14:59:36;5.20;;;3.07;;
15697;SDS011;7949;48.726;9.102;2022-12-07T15:02:04;5.77;;;3.50;;
15697;SDS011;7949;48.726;9.102;2022-12-07T15:04:31;5.10;;;3.67;;
15697;SDS011;7949;48.726;9.102;2022-12-07T15:06:58;5.47;;;3.43;;
15697;SDS011;7949;48.726;9.102;2022-12-07T15:09:28;6.23;;;3.07;;
15697;SDS011;7949;48.726;9.102;2022-12-07T15:11:55;5.40;;;3.77;;
15697;SDS011;7949;48.726;9.102;2022-12-07T15:14:22;10.43;;;4.50;;
15697;SDS011;7949;48.726;9.102;2022-12-07T15:16:49;7.67;;;4.60;;
15697;SDS011;7949;48.726;9.102;2022-12-07T15:19:16;8.30;;;4.57;;
15697;SDS011;7949;48.726;9.102;2022-12-07T15:21:46;9.20;;;4.93;;
15697;SDS011;7949;48.726;9.102;2022-12-07T15:24:12;10.23;;;5.37;;
15697;SDS011;7949;48.726;9.102;2022-12-07T15:26:41;9.80;;;5.20;;
15697;SDS011;7949;48.726;9.102;2022-12-07T15:29:08;8.53;;;5.63;;
15697;SDS011;7949;48.726;9.102;2022-12-07T15:31:36;10.17;;;5.07;;
15697;SDS011;7949;48.726;9.102;2022-12-07T15:34:04;8.00;;;4.83;;
15697;SDS011;7949;48.726;9.102;2022-12-07T15:36:32;11.17;;;5.53;;
15697;SDS011;7949;48.726;9.102;2022-12-07T15:38:59;4.73;;;3.00;;
15697;SDS011;7949;48.726;9.102;2022-12-07T15:41:27;6.60;;;4.30;;
15697;SDS011;7949;48.726;9.102;2022-12-07T15:43:55;8.30;;;4.77;;
15697;SDS011;7949;48.726;9.102;2022-12-07T15:46:40;6.80;;;4.10;;
15697;SDS011;7949;48.726;9.102;2022-12-07T15:49:09;12.10;;;4.97;;